Time;durP1;ratioP1;P1;durP2;ratioP2;P2;SDS_P1;SDS_P2;PMS_P1;PMS_P2;Temp;Humidity;BMP_temperature;BMP_pressure;BME280_temperature;BME280_humidity;BME280_pressure;Samples;Min_cycle;Max_cycle;Signal;HPM_P1;HPM_P2
2021/05/21 00:00:06;;;;;;;7.80;5.25;;;22.90;41.50;;;;;;6197014;28;82575;-67
2021/05/21 00:03:10;;;;;;;7.57;4.90;;;22.90;42.00;;;;;;6167715;28;81338;-67
2021/05/21 00:06:11;;;;;;;8.73;5.18;;;22.90;41.90;;;;;;6171568;28;80295;-68
2021/05/21 00:09:11;;;;;;;8.88;5.32;;;22.90;41.70;;;;;;6181990;28;80837;-67
2021/05/21 00:12:12;;;;;;;10.55;5.30;;;22.90;42.70;;;;;;6180925;28;80555;-68
2021/05/21 00:15:13;;;;;;;11.35;5.30;;;22.90;41.90;;;;;;6180548;28;80306;-66
2021/05/21 00:18:13;;;;;;;8.63;5.28;;;22.90;41.90;;;;;;6168365;28;82983;-65
2021/05/21 00:21:13;;;;;;;9.55;5.78;;;22.90;42.00;;;;;;6167264;28;80359;-68
2021/05/21 00:24:14;;;;;;;7.75;5.03;;;22.80;41.60;;;;;;6182143;28;81776;-68
2021/05/21 00:27:14;;;;;;;8.80;5.32;;;22.90;41.90;;;;;;6181458;28;83881;-68
2021/05/21 00:30:15;;;;;;;9.07;5.25;;;22.80;41.90;;;;;;6182283;28;81071;-68
2021/05/21 00:33:16;;;;;;;8.77;5.60;;;22.90;42.60;;;;;;6196785;28;80573;-68
2021/05/21 00:36:16;;;;;;;8.60;5.32;;;22.90;41.90;;;;;;6181952;28;82433;-69
2021/05/21 00:39:17;;;;;;;9.10;5.43;;;22.80;41.90;;;;;;6181461;28;80576;-69
2021/05/21 00:42:17;;;;;;;9.50;5.70;;;22.90;41.90;;;;;;6167352;28;80387;-69
2021/05/21 00:45:18;;;;;;;9.40;5.55;;;22.80;41.80;;;;;;6170564;28;80681;-69
2021/05/21 00:48:18;;;;;;;7.70;5.32;;;22.90;41.90;;;;;;6180849;28;80870;-69
2021/05/21 00:51:19;;;;;;;8.85;5.55;;;22.90;41.70;;;;;;6181143;28;80830;-68
2021/05/21 00:54:19;;;;;;;10.75;5.80;;;22.90;41.80;;;;;;6180910;28;80550;-67
2021/05/21 00:57:20;;;;;;;8.10;4.97;;;22.80;41.80;;;;;;6164820;28;81519;-67
2021/05/21 01:00:20;;;;;;;7.93;5.45;;;22.80;41.80;;;;;;6187240;28;80868;-68
2021/05/21 01:03:21;;;;;;;10.45;6.13;;;22.90;41.70;;;;;;6181733;28;81558;-67
2021/05/21 01:06:21;;;;;;;8.95;5.97;;;22.80;41.60;;;;;;6181114;28;80335;-68
2021/05/21 01:09:22;;;;;;;12.75;5.88;;;22.80;42.00;;;;;;6180560;28;80458;-69
2021/05/21 01:12:22;;;;;;;9.77;5.82;;;22.80;41.80;;;;;;6165121;28;80205;-69
2021/05/21 01:15:23;;;;;;;11.25;6.25;;;22.80;41.50;;;;;;6156253;28;80585;-69
2021/05/21 01:18:23;;;;;;;9.23;5.88;;;22.80;41.70;;;;;;6157173;28;80328;-69
2021/05/21 01:21:24;;;;;;;10.60;6.70;;;22.80;41.40;;;;;;6172350;28;80426;-69
2021/05/21 01:24:24;;;;;;;12.05;6.22;;;22.80;41.40;;;;;;6179311;28;81210;-69
2021/05/21 01:27:26;;;;;;;9.43;5.63;;;22.80;41.60;;;;;;6164780;28;80432;-69
2021/05/21 01:30:26;;;;;;;10.05;6.07;;;22.80;41.50;;;;;;6172061;28;80499;-70
2021/05/21 01:33:27;;;;;;;9.93;6.15;;;22.80;41.30;;;;;;6165144;28;80572;-69
2021/05/21 01:36:27;;;;;;;11.05;6.22;;;22.80;41.40;;;;;;6170984;28;80411;-69
2021/05/21 01:39:28;;;;;;;10.52;6.15;;;22.80;41.70;;;;;;6163530;28;81875;-68
2021/05/21 01:42:28;;;;;;;10.82;6.88;;;22.80;41.50;;;;;;6171797;28;81633;-68
2021/05/21 01:45:29;;;;;;;11.23;6.35;;;22.80;41.40;;;;;;6180736;28;80488;-67
2021/05/21 01:48:29;;;;;;;10.35;6.35;;;22.80;41.50;;;;;;6164885;28;80463;-68
2021/05/21 01:51:30;;;;;;;11.35;6.32;;;22.80;41.80;;;;;;6172352;28;80621;-69
2021/05/21 01:54:31;;;;;;;11.55;6.53;;;22.80;41.70;;;;;;6163506;28;80822;-69
2021/05/21 01:57:35;;;;;;;10.35;6.38;;;22.80;41.60;;;;;;6178710;28;81660;-68
2021/05/21 02:00:35;;;;;;;11.52;6.70;;;22.70;41.60;;;;;;6153256;28;81529;-67
2021/05/21 02:03:36;;;;;;;10.52;6.10;;;22.80;41.70;;;;;;6156437;28;81963;-67
2021/05/21 02:06:37;;;;;;;8.57;5.72;;;22.80;41.60;;;;;;6172104;28;80492;-68
2021/05/21 02:09:38;;;;;;;10.77;5.88;;;22.80;41.70;;;;;;6163404;28;80312;-68
2021/05/21 02:12:38;;;;;;;11.82;6.15;;;22.80;41.60;;;;;;6163035;28;80631;-68
2021/05/21 02:15:39;;;;;;;8.90;5.20;;;22.80;41.60;;;;;;6155737;28;80630;-68
2021/05/21 02:18:40;;;;;;;7.88;5.57;;;22.70;41.40;;;;;;6173273;28;80566;-68
2021/05/21 02:21:42;;;;;;;10.95;6.35;;;22.70;41.70;;;;;;6179677;28;80178;-68
2021/05/21 02:24:43;;;;;;;9.07;5.43;;;22.70;41.60;;;;;;6162318;28;80936;-68
2021/05/21 02:27:43;;;;;;;10.55;6.03;;;22.70;41.70;;;;;;6154740;28;80642;-68
2021/05/21 02:30:44;;;;;;;10.38;6.32;;;22.70;41.60;;;;;;6172926;28;80349;-68
2021/05/21 02:33:44;;;;;;;10.35;5.95;;;22.70;41.60;;;;;;6161055;28;80354;-68
2021/05/21 02:36:45;;;;;;;8.93;5.80;;;22.70;41.80;;;;;;6159096;28;80447;-68
2021/05/21 02:39:45;;;;;;;10.13;6.20;;;22.70;41.80;;;;;;6177634;28;80269;-68
2021/05/21 02:42:46;;;;;;;7.47;5.18;;;22.70;41.50;;;;;;6184188;28;80918;-68
2021/05/21 02:45:46;;;;;;;9.38;5.68;;;22.70;41.60;;;;;;6171623;28;83041;-68
2021/05/21 02:48:47;;;;;;;8.25;5.63;;;22.70;41.50;;;;;;6176791;28;80254;-68
2021/05/21 02:51:48;;;;;;;8.15;5.30;;;22.70;41.80;;;;;;6197635;28;80961;-68
2021/05/21 02:54:48;;;;;;;10.75;5.30;;;22.70;41.20;;;;;;6182996;28;80353;-68
2021/05/21 02:57:48;;;;;;;9.52;5.63;;;22.70;41.30;;;;;;6164392;28;81446;-68
2021/05/21 03:00:49;;;;;;;7.95;4.85;;;22.70;41.20;;;;;;6159267;28;80767;-68
2021/05/21 03:03:50;;;;;;;8.18;5.13;;;22.70;41.30;;;;;;6177963;28;80628;-68
2021/05/21 03:06:50;;;;;;;8.38;4.95;;;22.70;41.40;;;;;;6183381;28;80553;-68
2021/05/21 03:09:50;;;;;;;11.00;5.30;;;22.70;41.20;;;;;;6163252;28;81357;-68
2021/05/21 03:12:51;;;;;;;9.77;5.60;;;22.70;41.20;;;;;;6192365;28;83744;-68
2021/05/21 03:15:52;;;;;;;9.32;5.50;;;22.70;41.40;;;;;;6163764;28;82686;-69
2021/05/21 03:18:52;;;;;;;7.47;4.78;;;22.70;41.30;;;;;;6156127;28;81597;-68
2021/05/21 03:21:53;;;;;;;8.63;5.05;;;22.70;41.30;;;;;;6158870;28;80442;-69
2021/05/21 03:24:53;;;;;;;7.57;4.95;;;22.60;41.50;;;;;;6176426;28;83269;-69
2021/05/21 03:27:54;;;;;;;7.07;4.72;;;22.70;41.10;;;;;;6183118;28;80740;-68
2021/05/21 03:30:54;;;;;;;9.60;5.45;;;22.70;41.30;;;;;;6158700;28;80398;-68
2021/05/21 03:33:55;;;;;;;7.38;4.75;;;22.70;41.30;;;;;;6178582;28;80504;-68
2021/05/21 03:36:55;;;;;;;9.70;5.13;;;22.70;41.30;;;;;;6196308;28;81577;-68
2021/05/21 03:39:56;;;;;;;8.50;4.80;;;22.70;41.20;;;;;;6183136;28;80443;-67
2021/05/21 03:42:57;;;;;;;9.95;5.07;;;22.70;41.40;;;;;;6158127;28;80779;-68
2021/05/21 03:45:57;;;;;;;7.15;4.60;;;22.70;41.50;;;;;;6156172;28;80260;-68
2021/05/21 03:49:00;;;;;;;7.18;4.63;;;22.70;41.40;;;;;;6177032;28;80453;-68
2021/05/21 03:52:01;;;;;;;8.70;4.60;;;22.70;41.40;;;;;;6183061;28;80674;-66
2021/05/21 03:55:03;;;;;;;7.85;5.22;;;22.70;41.20;;;;;;6159072;28;80501;-66
2021/05/21 03:58:04;;;;;;;6.63;4.50;;;22.70;41.40;;;;;;6179360;28;80449;-66
2021/05/21 04:01:05;;;;;;;6.82;4.57;;;22.70;41.30;;;;;;6157601;28;88966;-67
2021/05/21 04:04:05;;;;;;;6.72;4.57;;;22.70;41.40;;;;;;6179563;28;80405;-66
2021/05/21 04:07:06;;;;;;;6.28;4.55;;;22.70;41.30;;;;;;6184020;28;80411;-66
2021/05/21 04:10:06;;;;;;;6.63;4.60;;;22.70;41.30;;;;;;6178706;28;80333;-66
2021/05/21 04:13:07;;;;;;;6.25;4.15;;;22.70;41.40;;;;;;6160864;28;80719;-67
2021/05/21 04:16:07;;;;;;;7.03;4.15;;;22.60;41.40;;;;;;6179092;28;80510;-66
2021/05/21 04:19:08;;;;;;;6.85;4.07;;;22.70;41.40;;;;;;6182796;28;82087;-65
2021/05/21 04:22:08;;;;;;;5.75;3.83;;;22.70;41.60;;;;;;6182842;28;82120;-63
2021/05/21 04:25:09;;;;;;;11.18;4.40;;;22.70;41.00;;;;;;6196629;28;82066;-65
2021/05/21 04:28:10;;;;;;;8.80;4.20;;;22.70;41.80;;;;;;6172523;28;81578;-66
2021/05/21 04:31:11;;;;;;;7.00;4.25;;;22.70;41.90;;;;;;6151342;28;81139;-65
2021/05/21 04:34:11;;;;;;;7.38;4.50;;;22.70;41.70;;;;;;6150612;28;80459;-66
2021/05/21 04:37:12;;;;;;;8.07;4.90;;;22.70;42.00;;;;;;6176588;28;81285;-64
2021/05/21 04:40:12;;;;;;;6.90;3.80;;;22.70;41.80;;;;;;6173629;28;80265;-65
2021/05/21 04:43:13;;;;;;;9.15;4.70;;;22.70;42.40;;;;;;6152098;28;80984;-63
2021/05/21 04:46:14;;;;;;;5.88;4.22;;;22.70;42.00;;;;;;6157003;28;81440;-65
2021/05/21 04:49:33;;;;;;;9.40;4.90;;;22.70;42.30;;;;;;6179004;28;80951;-65
2021/05/21 04:52:33;;;;;;;8.27;4.13;;;22.70;41.60;;;;;;6179565;28;84522;-65
2021/05/21 04:55:34;;;;;;;12.38;4.60;;;22.70;42.50;;;;;;6181098;28;80808;-64
2021/05/21 04:58:35;;;;;;;7.93;4.13;;;22.70;42.00;;;;;;6156276;28;81644;-65
2021/05/21 05:01:35;;;;;;;8.27;4.75;;;22.70;41.80;;;;;;6154365;28;80223;-62
2021/05/21 05:04:36;;;;;;;8.45;3.72;;;22.80;42.60;;;;;;6157127;28;80824;-63
2021/05/21 05:07:36;;;;;;;7.50;3.70;;;22.70;42.40;;;;;;6155785;28;82183;-64
2021/05/21 05:10:37;;;;;;;9.40;4.20;;;22.80;42.90;;;;;;6179921;28;80922;-64
2021/05/21 05:13:37;;;;;;;6.00;3.58;;;22.80;42.40;;;;;;6179498;28;81536;-66
2021/05/21 05:16:38;;;;;;;7.18;3.63;;;22.80;42.40;;;;;;6155155;28;80466;-66
2021/05/21 05:19:38;;;;;;;8.60;4.50;;;22.90;42.60;;;;;;6152372;28;80598;-65
2021/05/21 05:22:39;;;;;;;9.45;3.80;;;22.80;43.10;;;;;;6178789;28;80612;-66
2021/05/21 05:25:39;;;;;;;7.28;4.72;;;22.80;43.30;;;;;;6176374;28;80615;-67
2021/05/21 05:28:40;;;;;;;6.70;3.83;;;22.80;43.40;;;;;;6176832;28;80589;-66
2021/05/21 05:31:42;;;;;;;8.30;4.10;;;22.90;43.20;;;;;;6179110;28;81595;-66
2021/05/21 05:34:43;;;;;;;9.05;4.18;;;22.90;43.30;;;;;;6179665;28;80748;-64
2021/05/21 05:37:43;;;;;;;6.22;3.90;;;22.90;43.30;;;;;;6179561;28;80654;-63
2021/05/21 05:40:44;;;;;;;9.27;4.05;;;22.90;43.30;;;;;;6156710;28;80919;-65
2021/05/21 05:43:44;;;;;;;7.18;4.20;;;22.90;43.00;;;;;;6152178;28;80987;-64
2021/05/21 05:46:45;;;;;;;10.85;4.65;;;22.90;43.00;;;;;;6149648;28;80560;-65
2021/05/21 05:49:45;;;;;;;5.88;3.53;;;22.90;43.50;;;;;;6164123;28;80361;-64
2021/05/21 05:52:46;;;;;;;6.78;3.97;;;22.90;43.30;;;;;;6156374;28;81023;-65
2021/05/21 05:55:47;;;;;;;8.75;3.97;;;23.00;43.20;;;;;;6179143;28;80653;-66
2021/05/21 05:58:47;;;;;;;8.80;3.70;;;23.00;43.00;;;;;;6178831;28;80879;-63
2021/05/21 06:01:48;;;;;;;8.07;3.13;;;23.00;43.10;;;;;;6177786;28;80754;-63
2021/05/21 06:04:48;;;;;;;11.15;3.50;;;23.00;42.30;;;;;;6178135;28;81510;-63
2021/05/21 06:07:49;;;;;;;6.47;3.22;;;23.00;42.40;;;;;;6180321;28;80513;-64
2021/05/21 06:10:49;;;;;;;5.38;3.13;;;22.90;42.40;;;;;;6179735;28;80681;-66
2021/05/21 06:13:50;;;;;;;4.53;3.10;;;22.90;42.60;;;;;;6158121;28;80319;-66
2021/05/21 06:16:50;;;;;;;5.80;3.33;;;23.00;43.50;;;;;;6157814;28;82345;-66
2021/05/21 06:19:51;;;;;;;6.85;2.80;;;23.00;43.60;;;;;;6180842;28;80315;-65
2021/05/21 06:22:51;;;;;;;8.40;3.50;;;22.90;42.40;;;;;;6179839;28;80369;-67
2021/05/21 06:25:57;;;;;;;7.20;3.15;;;22.90;42.40;;;;;;6179658;28;81868;-66
2021/05/21 06:28:58;;;;;;;5.53;3.17;;;22.90;42.30;;;;;;6181778;28;80506;-66
2021/05/21 06:31:58;;;;;;;5.35;2.80;;;22.90;42.30;;;;;;6182184;28;80589;-65
2021/05/21 06:34:59;;;;;;;4.45;3.03;;;22.90;42.40;;;;;;6182371;28;80431;-66
2021/05/21 06:37:59;;;;;;;4.93;2.60;;;22.90;42.70;;;;;;6177377;28;80436;-67
2021/05/21 06:41:00;;;;;;;5.15;3.00;;;22.90;43.10;;;;;;6162151;28;80677;-67
2021/05/21 06:44:01;;;;;;;4.50;2.60;;;22.90;43.30;;;;;;6184121;28;80299;-67
2021/05/21 06:47:01;;;;;;;3.33;2.58;;;22.90;42.70;;;;;;6180176;28;80621;-67
2021/05/21 06:50:02;;;;;;;4.45;2.75;;;23.00;43.20;;;;;;6180045;28;82370;-68
2021/05/21 06:53:02;;;;;;;5.68;2.67;;;22.90;43.10;;;;;;6178520;28;82775;-67
2021/05/21 06:56:03;;;;;;;5.95;2.70;;;23.00;43.00;;;;;;6176311;28;80453;-68
2021/05/21 06:59:03;;;;;;;5.03;2.88;;;22.90;43.10;;;;;;6159771;28;80752;-68
2021/05/21 07:02:04;;;;;;;7.30;2.85;;;22.90;42.50;;;;;;6159399;28;80961;-65
2021/05/21 07:05:04;;;;;;;3.40;2.47;;;23.00;43.00;;;;;;6163627;28;80966;-64
2021/05/21 07:08:05;;;;;;;2.90;2.33;;;23.00;42.80;;;;;;6183387;28;80930;-68
2021/05/21 07:11:05;;;;;;;4.07;3.13;;;22.90;41.80;;;;;;6161889;28;80463;-68
2021/05/21 07:14:08;;;;;;;3.42;2.45;;;23.00;42.20;;;;;;6178867;28;82479;-66
2021/05/21 07:17:09;;;;;;;6.68;2.35;;;23.00;42.30;;;;;;6179432;28;81314;-66
2021/05/21 07:20:14;;;;;;;5.88;2.60;;;23.00;42.60;;;;;;6177374;28;80929;-67
2021/05/21 07:23:15;;;;;;;5.03;2.80;;;23.00;44.20;;;;;;6179551;28;81432;-67
2021/05/21 07:26:15;;;;;;;7.72;2.80;;;23.00;44.10;;;;;;6159436;28;81032;-65
2021/05/21 07:29:16;;;;;;;136.38;42.70;;;23.00;43.70;;;;;;6183623;28;81740;-66
2021/05/21 07:32:16;;;;;;;276.33;89.70;;;23.00;42.70;;;;;;6176219;28;83145;-64
2021/05/21 07:35:17;;;;;;;174.73;59.45;;;23.00;42.50;;;;;;6159851;28;83029;-64
2021/05/21 07:38:17;;;;;;;158.65;51.40;;;23.00;42.50;;;;;;6179291;28;84707;-66
2021/05/21 07:41:22;;;;;;;125.13;39.72;;;23.00;42.70;;;;;;6180625;28;83978;-66
2021/05/21 07:44:22;;;;;;;100.38;33.92;;;23.00;42.60;;;;;;6176524;28;84008;-65
2021/05/21 07:47:23;;;;;;;92.07;31.10;;;23.00;42.50;;;;;;6169999;28;84348;-66
2021/05/21 07:50:23;;;;;;;73.53;26.73;;;23.00;42.50;;;;;;6157794;28;84238;-65
2021/05/21 07:53:24;;;;;;;64.07;21.58;;;23.00;41.90;;;;;;6156620;28;83542;-65
2021/05/21 07:56:24;;;;;;;61.78;21.23;;;23.00;41.60;;;;;;6159461;28;85197;-64
2021/05/21 07:59:25;;;;;;;48.47;16.52;;;23.00;41.60;;;;;;6169519;28;83603;-64
2021/05/21 08:02:25;;;;;;;35.88;13.73;;;23.00;41.70;;;;;;6154445;28;85245;-66
2021/05/21 08:05:26;;;;;;;36.05;11.00;;;23.00;41.30;;;;;;6152805;28;84862;-63
2021/05/21 08:08:27;;;;;;;24.08;9.10;;;23.00;40.60;;;;;;6189897;28;84351;-65
2021/05/21 08:11:27;;;;;;;20.23;7.97;;;23.00;40.70;;;;;;6172767;28;83221;-65
2021/05/21 08:14:28;;;;;;;21.52;7.70;;;23.00;40.00;;;;;;6171696;28;83346;-64
2021/05/21 08:17:32;;;;;;;16.95;6.40;;;22.90;40.20;;;;;;6181336;28;80379;-65
2021/05/21 08:20:32;;;;;;;15.50;6.10;;;22.90;40.00;;;;;;6180191;28;80289;-67
2021/05/21 08:23:34;;;;;;;15.32;6.32;;;23.00;39.30;;;;;;6182651;28;80671;-68
2021/05/21 08:26:34;;;;;;;16.17;6.38;;;23.00;40.00;;;;;;6178749;28;83175;-69
2021/05/21 08:29:35;;;;;;;11.68;5.75;;;23.00;39.80;;;;;;6179347;28;81182;-65
2021/05/21 08:32:36;;;;;;;13.23;5.45;;;23.00;40.20;;;;;;6180778;28;81177;-67
2021/05/21 08:35:36;;;;;;;14.25;5.70;;;23.00;39.90;;;;;;6177706;28;80368;-67
2021/05/21 08:38:37;;;;;;;11.20;5.25;;;23.00;39.90;;;;;;6174129;28;81670;-67
2021/05/21 08:41:39;;;;;;;20.83;5.13;;;23.00;40.00;;;;;;6164773;28;80717;-66
2021/05/21 08:44:43;;;;;;;15.45;4.45;;;23.00;40.20;;;;;;6168379;28;80992;-67
2021/05/21 08:47:43;;;;;;;10.52;4.35;;;23.00;39.90;;;;;;6168285;28;80211;-67
2021/05/21 08:50:44;;;;;;;15.55;5.65;;;23.10;40.20;;;;;;6179066;28;83330;-66
2021/05/21 08:53:44;;;;;;;13.52;5.82;;;23.10;42.90;;;;;;6177569;28;80609;-66
2021/05/21 08:56:45;;;;;;;15.32;3.85;;;23.10;44.90;;;;;;6168664;28;81913;-67
2021/05/21 08:59:46;;;;;;;11.65;4.57;;;23.20;42.00;;;;;;6166426;28;81090;-66
2021/05/21 09:02:47;;;;;;;10.30;4.47;;;23.10;42.30;;;;;;6177988;28;80255;-66
2021/05/21 09:05:47;;;;;;;10.50;4.07;;;23.10;44.40;;;;;;6178550;28;80532;-67
2021/05/21 09:08:48;;;;;;;10.40;3.65;;;23.10;44.70;;;;;;6169940;28;81064;-66
2021/05/21 09:11:50;;;;;;;7.90;3.85;;;23.10;45.10;;;;;;6169229;28;88944;-66
2021/05/21 09:14:50;;;;;;;11.23;3.67;;;23.20;45.70;;;;;;6180229;28;80520;-66
2021/05/21 09:17:51;;;;;;;7.07;3.08;;;23.20;43.40;;;;;;6171268;28;80673;-66
2021/05/21 09:20:53;;;;;;;7.10;3.13;;;23.20;42.30;;;;;;6161429;28;81466;-69
2021/05/21 09:23:53;;;;;;;5.75;2.95;;;23.10;43.50;;;;;;6170020;28;80452;-65
2021/05/21 09:26:55;;;;;;;7.07;2.60;;;23.20;42.50;;;;;;6179093;28;86077;-66
2021/05/21 09:29:57;;;;;;;5.43;2.60;;;23.20;41.90;;;;;;6181060;28;80856;-66
2021/05/21 09:32:58;;;;;;;4.32;2.17;;;23.20;41.40;;;;;;6171414;28;81733;-68
2021/05/21 09:35:58;;;;;;;5.35;2.45;;;23.20;40.40;;;;;;6158678;28;81435;-66
2021/05/21 09:38:59;;;;;;;3.90;2.25;;;23.20;40.70;;;;;;6157808;28;83080;-67
2021/05/21 09:41:59;;;;;;;4.07;1.90;;;23.10;41.50;;;;;;6164038;28;83530;-67
2021/05/21 09:45:00;;;;;;;4.38;2.40;;;23.10;41.50;;;;;;6180620;28;80662;-67
2021/05/21 09:48:00;;;;;;;8.25;2.40;;;23.10;41.60;;;;;;6183446;28;80235;-67
2021/05/21 09:51:01;;;;;;;6.05;2.20;;;23.20;42.10;;;;;;6175166;28;80527;-67
2021/05/21 09:54:03;;;;;;;4.78;2.50;;;23.20;41.50;;;;;;6171467;28;80926;-67
2021/05/21 09:57:04;;;;;;;5.80;2.30;;;23.20;41.70;;;;;;6184154;28;82691;-67
2021/05/21 10:00:04;;;;;;;5.32;2.42;;;23.20;41.50;;;;;;6199773;28;81261;-66
2021/05/21 10:03:05;;;;;;;3.20;2.00;;;23.20;41.20;;;;;;6183681;28;80871;-66
2021/05/21 10:06:06;;;;;;;5.07;2.22;;;23.10;41.60;;;;;;6182640;28;80505;-67
2021/05/21 10:09:06;;;;;;;4.38;2.22;;;23.20;41.20;;;;;;6183186;28;80465;-66
2021/05/21 10:12:07;;;;;;;4.15;2.80;;;23.20;41.40;;;;;;6171701;28;80644;-66
2021/05/21 10:15:07;;;;;;;4.00;2.05;;;23.20;39.60;;;;;;6173313;28;80756;-66
2021/05/21 10:18:10;;;;;;;5.32;1.90;;;23.20;39.90;;;;;;6182476;28;80564;-67
2021/05/21 10:21:10;;;;;;;7.90;3.28;;;23.30;40.00;;;;;;6184289;28;80363;-67
2021/05/21 10:24:14;;;;;;;3.15;1.90;;;23.30;40.00;;;;;;6179068;28;80843;-67
2021/05/21 10:27:14;;;;;;;3.72;1.95;;;23.30;40.50;;;;;;6174465;28;80664;-67
2021/05/21 10:30:15;;;;;;;5.15;2.00;;;23.30;40.40;;;;;;6159161;28;80317;-68
2021/05/21 10:33:15;;;;;;;3.22;2.30;;;23.30;41.00;;;;;;6161305;28;80162;-67
2021/05/21 10:36:35;;;;;;;5.85;2.63;;;23.20;40.20;;;;;;6159903;28;80315;-67
2021/05/21 10:39:53;;;;;;;3.55;2.03;;;23.30;42.00;;;;;;6168298;28;80657;-67
2021/05/21 10:43:12;;;;;;;3.08;1.92;;;23.30;38.80;;;;;;6178098;28;80524;-68
2021/05/21 10:46:22;;;;;;;8.27;2.47;;;23.30;43.80;;;;;;6159009;28;82633;-66
2021/05/21 10:49:24;;;;;;;4.88;2.35;;;23.30;44.00;;;;;;6157860;28;80577;-71
2021/05/21 10:52:24;;;;;;;3.85;2.63;;;23.30;47.20;;;;;;6158949;28;81860;-68
2021/05/21 10:55:25;;;;;;;2.97;2.17;;;23.30;44.90;;;;;;6150220;28;82026;-69
2021/05/21 10:58:30;;;;;;;4.53;1.73;;;23.30;42.00;;;;;;6158476;28;80941;-67
2021/05/21 11:01:32;;;;;;;3.90;1.63;;;23.20;43.40;;;;;;6170151;28;80685;-67
2021/05/21 11:04:32;;;;;;;2.15;1.45;;;23.30;40.00;;;;;;6178298;28;80910;-66
2021/05/21 11:07:33;;;;;;;3.47;1.92;;;23.30;37.40;;;;;;6177106;28;81665;-66
2021/05/21 11:10:34;;;;;;;2.63;1.60;;;23.30;38.00;;;;;;6155438;28;83175;-66
2021/05/21 11:13:34;;;;;;;4.53;1.20;;;23.30;37.30;;;;;;6152491;28;80476;-66
2021/05/21 11:16:35;;;;;;;2.08;1.30;;;23.30;37.40;;;;;;6148448;28;80493;-67
2021/05/21 11:19:35;;;;;;;3.17;1.25;;;23.30;35.10;;;;;;6148405;28;81640;-67
2021/05/21 11:22:37;;;;;;;3.08;1.35;;;23.20;35.10;;;;;;6152205;28;82623;-67
2021/05/21 11:25:38;;;;;;;1.75;1.40;;;23.20;34.60;;;;;;6177462;28;80559;-67
2021/05/21 11:28:38;;;;;;;5.13;1.20;;;23.20;33.70;;;;;;6153914;28;80637;-67
2021/05/21 11:31:41;;;;;;;7.10;2.58;;;23.20;33.20;;;;;;6156612;28;83470;-68
2021/05/21 11:34:41;;;;;;;7.30;4.00;;;23.20;32.50;;;;;;6157842;28;80999;-68
2021/05/21 11:37:42;;;;;;;16.30;9.07;;;23.30;33.20;;;;;;6179882;28;81948;-67
2021/05/21 11:40:42;;;;;;;28.75;14.82;;;23.30;33.90;;;;;;6175211;28;80315;-68
2021/05/21 11:43:43;;;;;;;31.80;12.40;;;23.30;34.80;;;;;;6154719;28;83430;-68
2021/05/21 11:46:43;;;;;;;25.77;10.57;;;23.40;33.90;;;;;;6149329;28;84466;-66
2021/05/21 11:49:44;;;;;;;23.25;9.68;;;23.30;33.50;;;;;;6151612;27;91594;-67
2021/05/21 11:52:46;;;;;;;15.15;7.30;;;23.30;33.40;;;;;;6175129;28;82861;-66
2021/05/21 11:55:46;;;;;;;17.13;7.47;;;23.30;32.90;;;;;;6153874;28;80601;-67
2021/05/21 11:58:47;;;;;;;21.38;7.68;;;23.30;34.00;;;;;;6180489;28;80453;-68
2021/05/21 12:01:47;;;;;;;17.05;7.57;;;23.30;34.40;;;;;;6178788;28;81157;-71
2021/05/21 12:04:49;;;;;;;17.08;6.00;;;23.40;35.00;;;;;;6150686;28;81847;-68
2021/05/21 12:07:50;;;;;;;14.25;5.30;;;23.40;34.30;;;;;;6152883;28;80914;-71
2021/05/21 12:10:50;;;;;;;17.48;7.43;;;23.40;34.40;;;;;;6155972;28;81498;-68
2021/05/21 12:13:51;;;;;;;14.77;7.40;;;23.40;35.00;;;;;;6152363;28;80667;-68
2021/05/21 12:16:53;;;;;;;14.70;6.93;;;23.40;34.60;;;;;;6153459;28;80922;-67
2021/05/21 12:19:53;;;;;;;16.08;6.63;;;23.40;35.50;;;;;;6175968;28;81907;-68
2021/05/21 12:22:54;;;;;;;11.70;5.85;;;23.40;35.90;;;;;;6151815;28;81602;-69
2021/05/21 12:25:54;;;;;;;13.48;5.57;;;23.40;35.80;;;;;;6149865;28;80572;-69
2021/05/21 12:28:55;;;;;;;11.48;5.50;;;23.40;36.20;;;;;;6146106;28;80518;-71
2021/05/21 12:31:58;;;;;;;18.50;5.93;;;23.50;36.20;;;;;;6172217;28;80702;-69
2021/05/21 12:34:59;;;;;;;12.10;5.45;;;23.50;36.50;;;;;;6181707;28;81005;-70
2021/05/21 12:37:59;;;;;;;12.85;5.00;;;23.60;37.00;;;;;;6166216;28;80727;-70
2021/05/21 12:41:00;;;;;;;13.20;5.50;;;23.60;37.60;;;;;;6159832;28;81288;-69
2021/05/21 12:44:01;;;;;;;8.73;4.68;;;23.60;37.20;;;;;;6181429;28;80930;-70
2021/05/21 12:47:01;;;;;;;9.52;4.28;;;23.60;37.20;;;;;;6182544;28;80633;-69
2021/05/21 12:50:02;;;;;;;10.13;4.43;;;23.60;37.20;;;;;;6180727;28;81676;-69
2021/05/21 12:53:03;;;;;;;10.18;4.15;;;23.60;37.20;;;;;;6177094;28;81224;-67
2021/05/21 12:56:03;;;;;;;8.57;4.20;;;23.60;37.50;;;;;;6176866;28;80466;-66
2021/05/21 12:59:05;;;;;;;7.80;3.72;;;23.60;38.00;;;;;;6159184;28;80813;-67
2021/05/21 13:02:08;;;;;;;8.48;4.15;;;23.60;37.70;;;;;;6158307;28;81801;-67
2021/05/21 13:05:13;;;;;;;7.68;3.80;;;23.60;37.80;;;;;;6153591;28;81692;-70
2021/05/21 13:08:14;;;;;;;5.57;3.33;;;23.50;38.40;;;;;;6154234;28;81558;-70
2021/05/21 13:11:14;;;;;;;6.68;3.45;;;23.40;38.50;;;;;;6149346;28;81068;-70
2021/05/21 13:14:15;;;;;;;7.60;3.28;;;23.50;38.70;;;;;;6153041;28;80881;-69
2021/05/21 13:17:15;;;;;;;8.60;2.92;;;23.50;39.30;;;;;;6153604;28;81589;-69
2021/05/21 13:20:19;;;;;;;8.15;3.92;;;23.40;39.30;;;;;;6149017;28;81019;-69
2021/05/21 13:23:20;;;;;;;13.65;3.30;;;23.50;39.40;;;;;;6150339;28;80534;-68
2021/05/21 13:26:21;;;;;;;24.50;8.30;;;23.50;39.70;;;;;;6150654;28;80708;-69
2021/05/21 13:29:21;;;;;;;98.07;26.90;;;23.50;39.60;;;;;;6155092;28;80885;-69
2021/05/21 13:32:22;;;;;;;185.25;57.05;;;23.60;40.10;;;;;;6150924;28;83056;-68
2021/05/21 13:35:22;;;;;;;524.05;158.07;;;23.60;39.50;;;;;;6145474;28;83061;-69
2021/05/21 13:38:23;;;;;;;472.17;140.63;;;23.60;39.60;;;;;;6145928;28;85777;-67
2021/05/21 13:41:23;;;;;;;439.52;131.05;;;23.60;39.70;;;;;;6148663;28;88464;-67
2021/05/21 13:44:24;;;;;;;396.42;119.82;;;23.60;39.80;;;;;;6160412;28;85495;-67
2021/05/21 13:47:25;;;;;;;365.48;117.72;;;23.60;40.20;;;;;;6167137;28;85964;-69
2021/05/21 13:50:26;;;;;;;348.98;110.22;;;23.60;39.60;;;;;;6164209;28;87274;-68
2021/05/21 13:53:27;;;;;;;339.40;107.40;;;23.60;39.90;;;;;;6145044;28;85866;-68
2021/05/21 13:56:27;;;;;;;292.73;97.13;;;23.60;40.00;;;;;;6142563;28;85717;-68
2021/05/21 13:59:28;;;;;;;282.08;88.20;;;23.60;40.60;;;;;;6152929;28;85827;-70
2021/05/21 14:02:29;;;;;;;268.00;82.85;;;23.60;40.00;;;;;;6146297;28;83476;-67
2021/05/21 14:05:29;;;;;;;261.00;80.13;;;23.50;39.90;;;;;;6158162;28;83230;-67
2021/05/21 14:08:30;;;;;;;240.95;79.82;;;23.60;40.20;;;;;;6169805;28;84029;-67
2021/05/21 14:11:30;;;;;;;226.88;72.03;;;23.60;40.10;;;;;;6156664;28;83128;-68
2021/05/21 14:14:31;;;;;;;207.98;72.90;;;23.60;40.10;;;;;;6159449;28;83492;-68
2021/05/21 14:17:31;;;;;;;195.43;65.13;;;23.60;40.10;;;;;;6169191;28;83317;-67
2021/05/21 14:20:32;;;;;;;194.43;63.75;;;23.50;39.80;;;;;;6168757;28;83765;-66
2021/05/21 14:23:33;;;;;;;188.15;59.05;;;23.60;40.10;;;;;;6154766;28;83291;-67
2021/05/21 14:26:33;;;;;;;189.27;62.78;;;23.60;39.90;;;;;;6154235;28;83704;-67
2021/05/21 14:29:34;;;;;;;177.38;57.83;;;23.60;39.90;;;;;;6173882;28;90690;-68
2021/05/21 14:32:36;;;;;;;163.07;54.80;;;23.60;39.70;;;;;;6178723;28;86286;-68
2021/05/21 14:35:37;;;;;;;162.52;52.72;;;23.60;39.70;;;;;;6180521;28;83230;-67
2021/05/21 14:38:37;;;;;;;150.93;50.25;;;23.60;39.60;;;;;;6172624;28;84216;-65
2021/05/21 14:41:39;;;;;;;161.85;51.13;;;23.60;39.60;;;;;;6162188;28;84166;-67
2021/05/21 14:44:40;;;;;;;156.60;49.80;;;23.60;39.70;;;;;;6195382;28;84570;-70
2021/05/21 14:47:41;;;;;;;154.27;48.40;;;23.60;39.90;;;;;;6180729;28;83191;-69
2021/05/21 14:50:41;;;;;;;137.68;44.35;;;23.60;39.80;;;;;;6179934;28;83347;-69
2021/05/21 14:53:42;;;;;;;123.35;41.05;;;23.60;40.30;;;;;;6170796;28;83161;-69
2021/05/21 14:56:42;;;;;;;126.57;41.00;;;23.50;40.30;;;;;;6164409;28;83014;-68
2021/05/21 14:59:43;;;;;;;121.35;39.25;;;23.50;40.80;;;;;;6179453;28;83539;-70
2021/05/21 15:02:43;;;;;;;113.93;37.78;;;23.40;40.60;;;;;;6170646;28;83466;-69
2021/05/21 15:05:44;;;;;;;112.93;38.70;;;23.40;40.90;;;;;;6175626;28;84393;-67
2021/05/21 15:08:45;;;;;;;94.68;36.35;;;23.40;41.30;;;;;;6191688;28;82924;-65
2021/05/21 15:11:50;;;;;;;108.05;37.75;;;23.40;41.30;;;;;;6175150;28;84249;-65
2021/05/21 15:14:56;;;;;;;93.50;35.95;;;23.50;41.20;;;;;;6161292;27;85348;-67
2021/05/21 15:27:17;;;;;;;83.50;28.65;;;23.60;40.80;;;;;;6176202;28;84049;-67
2021/05/21 15:30:17;;;;;;;89.85;29.05;;;23.60;40.90;;;;;;6158971;28;84661;-68
2021/05/21 15:33:18;;;;;;;74.22;27.60;;;23.50;40.90;;;;;;6151169;28;83011;-68
2021/05/21 15:36:19;;;;;;;73.63;25.50;;;23.50;41.00;;;;;;6152449;28;83471;-66
2021/05/21 15:39:22;;;;;;;70.93;25.75;;;23.50;41.00;;;;;;6153228;28;84076;-66